createdAt,value
2019-05-15T00:02:21.744Z,97481.67
2019-05-15T00:04:50.069Z,97482.98
2019-05-15T00:07:18.416Z,97484.33
2019-05-15T00:09:48.966Z,97476.52
2019-05-15T00:12:18.945Z,97468.78
2019-05-15T00:14:48.475Z,97468.78
2019-05-15T00:17:19.214Z,97467.11
2019-05-15T00:19:48.597Z,97466.71
2019-05-15T00:22:18.357Z,97463.26
2019-05-15T00:24:48.662Z,97457.64
2019-05-15T00:27:16.863Z,97464.64
2019-05-15T00:29:45.176Z,97464.23
2019-05-15T00:32:13.543Z,97459.06
2019-05-15T00:34:41.821Z,97459.10
2019-05-15T00:37:10.151Z,97459.59
2019-05-15T00:39:39.047Z,97453.94
2019-05-15T00:42:08.273Z,97450.06
2019-05-15T00:44:38.746Z,97445.74
2019-05-15T00:47:10.505Z,97443.62
2019-05-15T00:49:38.250Z,97436.66
2019-05-15T00:52:11.750Z,97439.75
2019-05-15T00:54:38.758Z,97427.17
2019-05-15T00:57:08.530Z,97426.32
2019-05-15T00:59:38.921Z,97424.61
2019-05-15T01:02:08.711Z,97420.33
2019-05-15T01:04:38.915Z,97419.05
2019-05-15T01:07:08.320Z,97421.24
2019-05-15T01:09:38.463Z,97422.16
2019-05-15T01:12:09.072Z,97414.82
2019-05-15T01:14:38.613Z,97413.55
2019-05-15T01:17:09.073Z,97409.25
2019-05-15T01:19:37.913Z,97404.94
2019-05-15T01:22:08.591Z,97401.05
2019-05-15T01:24:38.755Z,97394.16
2019-05-15T01:27:09.010Z,97395.05
2019-05-15T01:29:44.554Z,97390.70
2019-05-15T01:32:08.460Z,97392.91
2019-05-15T01:34:38.429Z,97390.30
2019-05-15T01:37:08.580Z,97391.18
2019-05-15T01:39:38.772Z,97386.45
2019-05-15T01:42:08.337Z,97385.13
2019-05-15T01:44:38.813Z,97387.32
2019-05-15T01:47:08.450Z,97383.86
2019-05-15T01:49:38.427Z,97376.94
2019-05-15T01:52:08.175Z,97381.30
2019-05-15T01:54:38.318Z,97375.23
2019-05-15T01:57:09.129Z,97380.00
2019-05-15T01:59:38.890Z,97375.69
2019-05-15T02:02:09.501Z,97278.41
2019-05-15T02:04:39.170Z,97376.14
2019-05-15T13:06:19.300Z,97040.95
2019-05-15T13:08:48.912Z,97040.92
2019-05-15T13:11:18.041Z,97046.11
2019-05-15T13:13:48.508Z,97041.99
2019-05-15T13:16:18.405Z,97038.12
2019-05-15T13:18:48.090Z,97034.45
2019-05-15T13:21:20.559Z,97032.95
2019-05-15T13:23:48.115Z,97032.88
2019-05-15T13:26:23.652Z,97029.40
2019-05-15T13:28:48.818Z,97028.53
2019-05-15T13:31:19.148Z,96923.31
2019-05-15T13:33:48.136Z,97030.30
2019-05-15T13:36:16.524Z,97015.30
2019-05-15T13:38:44.896Z,97026.87
2019-05-15T13:41:13.387Z,97030.06
2019-05-15T13:43:41.760Z,97030.72
2019-05-15T13:46:10.092Z,97022.95
2019-05-15T13:48:38.780Z,97020.41
2019-05-15T13:51:07.135Z,97022.59
2019-05-15T13:53:35.728Z,97018.55
2019-05-15T13:56:04.041Z,96791.55
2019-05-15T13:58:32.362Z,97023.75
2019-05-15T14:01:00.737Z,97023.42
2019-05-15T14:03:29.103Z,97026.59
2019-05-15T14:05:58.326Z,97024.77
2019-05-15T14:08:28.726Z,97017.16
2019-05-15T14:10:58.212Z,97018.51
2019-05-15T14:13:28.722Z,97023.89
2019-05-15T14:15:58.268Z,97010.61
2019-05-15T14:18:28.669Z,97015.48
2019-05-15T14:20:58.433Z,97009.59
2019-05-15T14:23:29.206Z,97009.59
2019-05-15T14:25:58.897Z,97004.21
2019-05-15T14:28:28.409Z,97009.09
2019-05-15T14:30:58.721Z,97004.58
2019-05-15T14:33:29.159Z,97003.38
2019-05-15T14:35:57.780Z,97017.53
2019-05-15T14:38:26.147Z,97009.45
2019-05-15T14:40:54.462Z,97004.06
2019-05-15T14:43:22.772Z,97000.36
2019-05-15T14:45:51.134Z,96995.81
2019-05-15T14:48:19.724Z,96986.38
2019-05-15T14:50:48.028Z,96995.16
2019-05-15T14:53:18.675Z,96992.98
2019-05-15T14:55:49.201Z,96999.56
2019-05-15T14:58:19.516Z,96998.37
2019-05-15T15:00:50.120Z,96999.71
2019-05-15T15:03:18.367Z,97002.77
2019-05-15T15:05:49.109Z,96998.73
2019-05-15T15:08:24.380Z,96996.88
2019-05-15T15:10:46.987Z,97004.11
2019-05-15T15:13:15.316Z,96993.34
2019-05-15T15:15:43.688Z,96993.34
2019-05-15T15:18:12.177Z,97000.08
2019-05-15T15:20:40.476Z,97002.27
2019-05-15T15:23:08.801Z,96991.63
2019-05-15T15:25:39.578Z,96992.47
2019-05-15T15:28:08.390Z,96990.66
2019-05-15T15:30:39.483Z,96987.96
2019-05-15T15:33:08.474Z,96988.30
2019-05-15T15:35:38.257Z,96985.27
2019-05-15T15:38:12.064Z,96982.07
2019-05-15T15:40:38.890Z,96985.74
2019-05-15T15:43:08.797Z,96990.48
2019-05-15T15:45:39.142Z,96982.07
2019-05-15T15:48:08.384Z,96983.92
2019-05-15T15:50:38.408Z,96989.64
2019-05-15T15:53:08.865Z,96986.11
2019-05-15T15:55:38.658Z,96993.34
2019-05-15T15:58:08.855Z,96990.66
2019-05-15T16:00:38.356Z,96989.78
2019-05-15T16:03:08.514Z,96982.97
2019-05-15T16:05:38.435Z,96990.18
2019-05-15T16:08:08.581Z,96995.63
2019-05-15T16:10:37.959Z,96993.02
2019-05-15T16:13:09.010Z,96995.69
